ACA848 KMIA-CYYZ
Flight info
| Callsign | ACA848 |
|---|---|
| Flight time | N/A |
| Altitude | 37000 |
| Route | ALTNN2 DUCEN Q87 VIYAP Q69 BLAAN/N0441F390 Q69 RICCS DCT OXMAN LINNG3 |
| Aircraft | A320/M-SDE3FGHIRWY/LB1 |
Departure
| Time | 2026-05-07 19:38 |
|---|---|
| Airport | Miami International Airport (KMIA) |
Arrival
| Time | N/A |
|---|---|
| Airport | Toronto Pearson International Airport (CYYZ) |
| Time | Latitude | Longitude | Altitude | Speed | Heading |
|---|---|---|---|---|---|
| 2026-05-07 19:15 | 25.79289 | -80.28173 | 15 ft | 0 kts | 169° |
| 2026-05-07 19:25 | 25.79291 | -80.28173 | 15 ft | 2 kts | 169° |
| 2026-05-07 19:25 | 25.79316 | -80.28178 | 17 ft | 4 kts | 176° |
| 2026-05-07 19:25 | 25.79343 | -80.28177 | 17 ft | 4 kts | 195° |
| 2026-05-07 19:26 | 25.79363 | -80.28165 | 15 ft | 4 kts | 253° |
| 2026-05-07 19:26 | 25.79364 | -80.28158 | 15 ft | 2 kts | 269° |
| 2026-05-07 19:29 | 25.79364 | -80.28165 | 15 ft | 3 kts | 269° |
| 2026-05-07 19:29 | 25.79364 | -80.28195 | 17 ft | 4 kts | 268° |
| 2026-05-07 19:29 | 25.79360 | -80.28220 | 17 ft | 4 kts | 257° |
| 2026-05-07 19:29 | 25.79351 | -80.28249 | 15 ft | 4 kts | 249° |
| 2026-05-07 19:30 | 25.79343 | -80.28272 | 17 ft | 3 kts | 249° |
| 2026-05-07 19:30 | 25.79337 | -80.28306 | 15 ft | 6 kts | 264° |
| 2026-05-07 19:30 | 25.79333 | -80.28351 | 15 ft | 5 kts | 264° |
| 2026-05-07 19:30 | 25.79329 | -80.28399 | 15 ft | 8 kts | 268° |
| 2026-05-07 19:31 | 25.79326 | -80.28454 | 15 ft | 7 kts | 265° |
| 2026-05-07 19:31 | 25.79323 | -80.28485 | 15 ft | 0 kts | 264° |
| 2026-05-07 19:31 | 25.79322 | -80.28486 | 15 ft | 1 kts | 264° |
| 2026-05-07 19:32 | 25.79318 | -80.28536 | 15 ft | 7 kts | 264° |
| 2026-05-07 19:32 | 25.79320 | -80.28589 | 15 ft | 6 kts | 280° |
| 2026-05-07 19:32 | 25.79333 | -80.28635 | 15 ft | 7 kts | 294° |
| 2026-05-07 19:32 | 25.79383 | -80.28736 | 15 ft | 19 kts | 300° |
| 2026-05-07 19:33 | 25.79448 | -80.28861 | 15 ft | 18 kts | 299° |
| 2026-05-07 19:33 | 25.79506 | -80.28976 | 15 ft | 17 kts | 298° |
| 2026-05-07 19:33 | 25.79558 | -80.29083 | 15 ft | 15 kts | 298° |
| 2026-05-07 19:33 | 25.79608 | -80.29179 | 15 ft | 14 kts | 301° |
| 2026-05-07 19:34 | 25.79654 | -80.29266 | 15 ft | 13 kts | 299° |
| 2026-05-07 19:34 | 25.79695 | -80.29348 | 15 ft | 12 kts | 299° |
| 2026-05-07 19:34 | 25.79733 | -80.29423 | 15 ft | 11 kts | 299° |
| 2026-05-07 19:34 | 25.79768 | -80.29491 | 15 ft | 10 kts | 299° |
| 2026-05-07 19:35 | 25.79799 | -80.29553 | 15 ft | 9 kts | 300° |
| 2026-05-07 19:35 | 25.79830 | -80.29611 | 15 ft | 8 kts | 300° |
| 2026-05-07 19:35 | 25.79859 | -80.29665 | 15 ft | 8 kts | 300° |
| 2026-05-07 19:35 | 25.79891 | -80.29726 | 14 ft | 10 kts | 297° |
| 2026-05-07 19:36 | 25.79915 | -80.29789 | 14 ft | 9 kts | 294° |
| 2026-05-07 19:36 | 25.79938 | -80.29846 | 14 ft | 8 kts | 294° |
| 2026-05-07 19:36 | 25.79960 | -80.29904 | 14 ft | 12 kts | 289° |
| 2026-05-07 19:36 | 25.79987 | -80.30002 | 13 ft | 13 kts | 287° |
| 2026-05-07 19:37 | 25.80023 | -80.30083 | 14 ft | 10 kts | 332° |
| 2026-05-07 19:37 | 25.80071 | -80.30046 | 14 ft | 8 kts | 76° |
| 2026-05-07 19:37 | 25.80078 | -80.29981 | 13 ft | 10 kts | 86° |
| 2026-05-07 19:37 | 25.80079 | -80.29967 | 14 ft | 0 kts | 88° |
| 2026-05-07 19:38 | 25.80083 | -80.29863 | 13 ft | 47 kts | 88° |
| 2026-05-07 19:38 | 25.80096 | -80.29489 | 14 ft | 93 kts | 87° |
| 2026-05-07 19:38 | 25.80147 | -80.28157 | 17 ft | 163 kts | 90° |
| 2026-05-07 19:38 | 25.80193 | -80.26887 | 630 ft | 163 kts | 90° |
| 2026-05-07 19:39 | 25.80220 | -80.25625 | 1306 ft | 166 kts | 91° |
| 2026-05-07 19:39 | 25.80259 | -80.24316 | 1898 ft | 173 kts | 91° |
| 2026-05-07 19:39 | 25.80315 | -80.22962 | 2433 ft | 182 kts | 88° |
| 2026-05-07 19:39 | 25.80364 | -80.21992 | 2625 ft | 197 kts | 88° |
| 2026-05-07 19:40 | 25.80471 | -80.19819 | 3029 ft | 227 kts | 87° |
| 2026-05-07 19:40 | 25.80585 | -80.18001 | 3416 ft | 246 kts | 78° |
| 2026-05-07 19:40 | 25.81419 | -80.16328 | 3954 ft | 254 kts | 39° |
| 2026-05-07 19:40 | 25.83001 | -80.15506 | 4714 ft | 253 kts | 10° |
| 2026-05-07 19:41 | 25.84761 | -80.15330 | 5478 ft | 254 kts | 359° |
| 2026-05-07 19:41 | 25.85948 | -80.15350 | 5877 ft | 264 kts | 357° |
| 2026-05-07 19:41 | 25.88476 | -80.15478 | 6645 ft | 281 kts | 354° |
| 2026-05-07 19:41 | 25.90393 | -80.15964 | 7362 ft | 286 kts | 340° |
| 2026-05-07 19:42 | 25.92263 | -80.16741 | 8126 ft | 289 kts | 340° |
| 2026-05-07 19:42 | 25.93514 | -80.17214 | 8631 ft | 291 kts | 341° |
| 2026-05-07 19:42 | 25.96129 | -80.18134 | 9640 ft | 297 kts | 343° |
| 2026-05-07 19:42 | 25.97442 | -80.18581 | 10110 ft | 300 kts | 343° |
| 2026-05-07 19:43 | 25.99549 | -80.19122 | 10379 ft | 322 kts | 353° |
| 2026-05-07 19:43 | 26.02593 | -80.19410 | 10928 ft | 339 kts | 355° |
| 2026-05-07 19:43 | 26.04995 | -80.19640 | 11606 ft | 342 kts | 355° |
| 2026-05-07 19:43 | 26.07379 | -80.19878 | 12321 ft | 345 kts | 354° |
| 2026-05-07 19:44 | 26.09639 | -80.20112 | 12976 ft | 347 kts | 354° |
| 2026-05-07 19:44 | 26.12048 | -80.20367 | 13692 ft | 348 kts | 354° |
| 2026-05-07 19:44 | 26.14473 | -80.20626 | 14283 ft | 352 kts | 354° |
| 2026-05-07 19:44 | 26.16122 | -80.20800 | 14687 ft | 353 kts | 353° |
| 2026-05-07 19:45 | 26.19389 | -80.21137 | 15470 ft | 357 kts | 354° |
| 2026-05-07 19:45 | 26.21872 | -80.21379 | 16050 ft | 360 kts | 354° |
| 2026-05-07 19:45 | 26.24381 | -80.21607 | 16653 ft | 362 kts | 353° |
| 2026-05-07 19:45 | 26.26900 | -80.21826 | 17255 ft | 364 kts | 353° |
| 2026-05-07 19:46 | 26.29433 | -80.22044 | 17845 ft | 367 kts | 353° |
| 2026-05-07 19:46 | 26.31125 | -80.22192 | 18255 ft | 368 kts | 353° |
| 2026-05-07 19:46 | 26.34532 | -80.22493 | 18927 ft | 372 kts | 353° |
| 2026-05-07 19:46 | 26.37125 | -80.22723 | 19418 ft | 375 kts | 353° |
| 2026-05-07 19:47 | 26.39735 | -80.22962 | 19906 ft | 378 kts | 352° |
| 2026-05-07 19:47 | 26.41478 | -80.23135 | 20225 ft | 380 kts | 352° |
| 2026-05-07 19:47 | 26.45010 | -80.23504 | 20867 ft | 384 kts | 351° |
| 2026-05-07 19:47 | 26.47680 | -80.23793 | 21346 ft | 387 kts | 351° |
| 2026-05-07 19:48 | 26.50371 | -80.24083 | 21814 ft | 390 kts | 351° |
| 2026-05-07 19:48 | 26.52165 | -80.24272 | 22135 ft | 392 kts | 351° |
| 2026-05-07 19:48 | 26.55788 | -80.24648 | 22770 ft | 396 kts | 351° |
| 2026-05-07 19:48 | 26.57642 | -80.24863 | 23090 ft | 398 kts | 349° |
| 2026-05-07 19:49 | 26.61288 | -80.25409 | 23682 ft | 401 kts | 347° |
| 2026-05-07 19:49 | 26.63158 | -80.25729 | 23951 ft | 403 kts | 347° |
| 2026-05-07 19:49 | 26.66834 | -80.26390 | 24463 ft | 405 kts | 346° |
| 2026-05-07 19:49 | 26.69629 | -80.26906 | 24848 ft | 406 kts | 344° |
| 2026-05-07 19:50 | 26.72337 | -80.27776 | 25214 ft | 403 kts | 335° |
| 2026-05-07 19:50 | 26.74086 | -80.28519 | 25462 ft | 405 kts | 335° |
| 2026-05-07 19:50 | 26.76727 | -80.29634 | 25833 ft | 407 kts | 335° |
| 2026-05-07 19:50 | 26.79384 | -80.30749 | 26190 ft | 409 kts | 335° |
| 2026-05-07 19:51 | 26.82927 | -80.32227 | 26664 ft | 411 kts | 335° |
| 2026-05-07 19:51 | 26.84749 | -80.32985 | 26913 ft | 412 kts | 335° |
| 2026-05-07 19:51 | 26.88316 | -80.34475 | 27379 ft | 414 kts | 335° |
| 2026-05-07 19:51 | 26.90110 | -80.35225 | 27601 ft | 415 kts | 335° |
| 2026-05-07 19:52 | 26.92832 | -80.36366 | 27930 ft | 417 kts | 335° |
| 2026-05-07 19:52 | 26.95562 | -80.37509 | 28257 ft | 419 kts | 335° |
| 2026-05-07 19:52 | 26.98308 | -80.38634 | 28576 ft | 421 kts | 335° |
| 2026-05-07 19:52 | 27.01086 | -80.39751 | 28895 ft | 423 kts | 335° |
| 2026-05-07 19:53 | 27.03838 | -80.40845 | 29203 ft | 425 kts | 335° |
| 2026-05-07 19:53 | 27.06641 | -80.41959 | 29507 ft | 427 kts | 335° |
| 2026-05-07 19:53 | 27.09447 | -80.43080 | 29804 ft | 429 kts | 335° |
| 2026-05-07 19:53 | 27.12256 | -80.44250 | 30092 ft | 430 kts | 334° |
| 2026-05-07 19:54 | 27.15051 | -80.45470 | 30356 ft | 431 kts | 333° |
| 2026-05-07 19:54 | 27.17845 | -80.46723 | 30608 ft | 432 kts | 333° |
| 2026-05-07 19:54 | 27.20644 | -80.47991 | 30851 ft | 434 kts | 333° |
| 2026-05-07 19:54 | 27.23421 | -80.49245 | 31084 ft | 435 kts | 333° |
| 2026-05-07 19:55 | 27.26251 | -80.50515 | 31313 ft | 437 kts | 333° |
| 2026-05-07 19:55 | 27.29081 | -80.51776 | 31534 ft | 438 kts | 333° |
| 2026-05-07 19:55 | 27.31924 | -80.53034 | 31834 ft | 437 kts | 333° |
| 2026-05-07 19:55 | 27.34723 | -80.54269 | 32152 ft | 436 kts | 333° |
| 2026-05-07 19:56 | 27.37549 | -80.55510 | 32469 ft | 436 kts | 334° |
| 2026-05-07 19:56 | 27.40397 | -80.56695 | 32788 ft | 436 kts | 335° |
| 2026-05-07 19:56 | 27.43258 | -80.57828 | 33121 ft | 435 kts | 336° |
| 2026-05-07 19:56 | 27.46124 | -80.58933 | 33451 ft | 434 kts | 336° |
| 2026-05-07 19:57 | 27.48981 | -80.60031 | 33784 ft | 433 kts | 336° |
| 2026-05-07 19:57 | 27.51833 | -80.61136 | 34105 ft | 432 kts | 336° |
| 2026-05-07 19:57 | 27.54685 | -80.62255 | 34387 ft | 431 kts | 335° |
| 2026-05-07 19:57 | 27.57520 | -80.63379 | 34650 ft | 430 kts | 335° |
| 2026-05-07 19:58 | 27.60323 | -80.64500 | 34909 ft | 429 kts | 335° |
| 2026-05-07 19:58 | 27.63110 | -80.65618 | 35163 ft | 428 kts | 335° |
| 2026-05-07 19:58 | 27.65913 | -80.66744 | 35411 ft | 428 kts | 335° |
| 2026-05-07 19:58 | 27.68720 | -80.67870 | 35650 ft | 427 kts | 335° |
| 2026-05-07 19:59 | 27.71484 | -80.68974 | 35885 ft | 426 kts | 335° |
| 2026-05-07 19:59 | 27.74271 | -80.70086 | 36112 ft | 426 kts | 335° |
| 2026-05-07 19:59 | 27.77063 | -80.71201 | 36352 ft | 425 kts | 335° |
| 2026-05-07 19:59 | 27.79844 | -80.72313 | 36579 ft | 424 kts | 335° |
| 2026-05-07 20:00 | 27.82635 | -80.73431 | 36800 ft | 423 kts | 335° |
| 2026-05-07 20:00 | 27.85411 | -80.74541 | 36981 ft | 423 kts | 335° |
| 2026-05-07 20:00 | 27.90897 | -80.76732 | 37029 ft | 419 kts | 335° |
| 2026-05-07 20:01 | 27.96424 | -80.78955 | 37015 ft | 418 kts | 335° |
| 2026-05-07 20:01 | 28.01915 | -80.81163 | 37014 ft | 418 kts | 335° |
| 2026-05-07 20:02 | 28.07367 | -80.83354 | 37028 ft | 418 kts | 335° |
| 2026-05-07 20:02 | 28.12843 | -80.85559 | 37027 ft | 417 kts | 335° |
| 2026-05-07 20:03 | 28.18366 | -80.87782 | 37031 ft | 425 kts | 335° |
| 2026-05-07 20:03 | 28.23964 | -80.90039 | 37026 ft | 433 kts | 335° |
| 2026-05-07 20:04 | 28.29680 | -80.92351 | 37026 ft | 438 kts | 335° |
| 2026-05-07 20:04 | 28.35467 | -80.94697 | 37024 ft | 442 kts | 335° |
| 2026-05-07 20:05 | 28.41252 | -80.97035 | 37021 ft | 445 kts | 335° |
| 2026-05-07 20:05 | 28.47100 | -80.99399 | 37020 ft | 447 kts | 335° |
| 2026-05-07 20:06 | 28.52959 | -81.01772 | 37021 ft | 447 kts | 335° |
| 2026-05-07 20:06 | 28.55839 | -81.02932 | 37018 ft | 432 kts | 335° |
| 2026-05-07 20:06 | 28.58635 | -81.04057 | 37021 ft | 422 kts | 334° |
| 2026-05-07 20:07 | 28.64095 | -81.06285 | 37016 ft | 416 kts | 334° |
| 2026-05-07 20:07 | 28.69538 | -81.08517 | 37009 ft | 414 kts | 334° |
| 2026-05-07 20:08 | 28.74961 | -81.10728 | 37009 ft | 413 kts | 334° |
| 2026-05-07 20:08 | 28.80377 | -81.12934 | 37008 ft | 413 kts | 334° |
| 2026-05-07 20:09 | 28.85761 | -81.15134 | 37014 ft | 413 kts | 334° |
| 2026-05-07 20:10 | 28.93891 | -81.18467 | 37012 ft | 413 kts | 333° |
| 2026-05-07 20:10 | 28.99297 | -81.20681 | 37032 ft | 412 kts | 333° |
| 2026-05-07 20:11 | 29.04695 | -81.22891 | 37026 ft | 411 kts | 333° |
| 2026-05-07 20:11 | 29.10084 | -81.25106 | 37021 ft | 411 kts | 333° |
| 2026-05-07 20:12 | 29.15472 | -81.27321 | 37016 ft | 410 kts | 333° |
| 2026-05-07 20:12 | 29.20825 | -81.29519 | 37019 ft | 410 kts | 333° |
| 2026-05-07 20:13 | 29.26204 | -81.31701 | 37022 ft | 413 kts | 336° |
| 2026-05-07 20:13 | 29.32011 | -81.32571 | 37005 ft | 427 kts | 349° |
| 2026-05-07 20:14 | 29.37942 | -81.32904 | 36996 ft | 427 kts | 348° |
| 2026-05-07 20:14 | 29.43856 | -81.33261 | 36991 ft | 427 kts | 348° |
| 2026-05-07 20:15 | 29.49813 | -81.33615 | 36990 ft | 428 kts | 349° |
| 2026-05-07 20:15 | 29.55764 | -81.33963 | 37047 ft | 428 kts | 348° |
| 2026-05-07 20:16 | 29.61718 | -81.34317 | 37041 ft | 428 kts | 348° |
| 2026-05-07 20:16 | 29.67592 | -81.34665 | 37034 ft | 428 kts | 348° |
| 2026-05-07 20:17 | 29.73554 | -81.35026 | 37028 ft | 427 kts | 348° |
| 2026-05-07 20:17 | 29.79506 | -81.35377 | 37020 ft | 428 kts | 348° |
| 2026-05-07 20:18 | 29.85457 | -81.35732 | 37043 ft | 427 kts | 348° |
| 2026-05-07 20:18 | 29.91359 | -81.36078 | 37022 ft | 427 kts | 348° |
| 2026-05-07 20:19 | 29.97302 | -81.36430 | 37021 ft | 427 kts | 348° |
| 2026-05-07 20:19 | 30.03235 | -81.36790 | 37023 ft | 427 kts | 348° |
| 2026-05-07 20:20 | 30.09176 | -81.37150 | 37015 ft | 427 kts | 348° |
| 2026-05-07 20:20 | 30.15124 | -81.37500 | 37052 ft | 428 kts | 348° |
| 2026-05-07 20:21 | 30.21090 | -81.37852 | 37029 ft | 428 kts | 348° |
| 2026-05-07 20:21 | 30.27037 | -81.38210 | 36994 ft | 429 kts | 348° |
| 2026-05-07 20:22 | 30.33009 | -81.38574 | 36988 ft | 429 kts | 348° |
| 2026-05-07 20:22 | 30.38981 | -81.38930 | 36987 ft | 430 kts | 348° |
| 2026-05-07 20:23 | 30.43929 | -81.39222 | 36986 ft | 430 kts | 348° |
| 2026-05-07 20:23 | 30.50894 | -81.39622 | 36990 ft | 430 kts | 348° |
| 2026-05-07 20:24 | 30.56870 | -81.39933 | 36988 ft | 430 kts | 348° |
| 2026-05-07 20:24 | 30.62857 | -81.40243 | 36989 ft | 430 kts | 348° |
| 2026-05-07 20:25 | 30.68841 | -81.40555 | 37011 ft | 431 kts | 349° |
| 2026-05-07 20:25 | 30.74832 | -81.40871 | 36998 ft | 432 kts | 349° |
| 2026-05-07 20:26 | 30.80812 | -81.41183 | 36988 ft | 432 kts | 349° |
| 2026-05-07 20:26 | 30.86830 | -81.41507 | 36983 ft | 433 kts | 349° |
| 2026-05-07 20:27 | 30.92858 | -81.41830 | 36992 ft | 433 kts | 349° |
| 2026-05-07 20:27 | 30.98868 | -81.42156 | 36945 ft | 434 kts | 349° |
| 2026-05-07 20:28 | 31.04902 | -81.42478 | 36917 ft | 434 kts | 349° |
| 2026-05-07 20:28 | 31.10933 | -81.42798 | 36900 ft | 435 kts | 349° |
| 2026-05-07 20:29 | 31.16908 | -81.43121 | 36902 ft | 435 kts | 349° |
| 2026-05-07 20:29 | 31.22988 | -81.43438 | 36961 ft | 436 kts | 349° |
| 2026-05-07 20:30 | 31.29066 | -81.43691 | 36976 ft | 438 kts | 350° |
| 2026-05-07 20:30 | 31.35128 | -81.43751 | 36966 ft | 439 kts | 351° |
| 2026-05-07 20:31 | 31.41236 | -81.43762 | 36962 ft | 439 kts | 351° |
| 2026-05-07 20:31 | 31.47371 | -81.43537 | 36953 ft | 449 kts | 1° |
| 2026-05-07 20:31 | 31.50437 | -81.42668 | 36951 ft | 460 kts | 11° |
| 2026-05-07 20:32 | 31.53479 | -81.41416 | 36966 ft | 462 kts | 11° |
| 2026-05-07 20:32 | 31.59553 | -81.38909 | 36937 ft | 463 kts | 11° |
| 2026-05-07 20:33 | 31.65653 | -81.36406 | 36924 ft | 464 kts | 11° |
| 2026-05-07 20:33 | 31.71710 | -81.33928 | 36916 ft | 465 kts | 11° |
| 2026-05-07 20:34 | 31.77827 | -81.31408 | 36949 ft | 465 kts | 11° |
| 2026-05-07 20:34 | 31.83950 | -81.28871 | 36909 ft | 467 kts | 10° |
| 2026-05-07 20:35 | 31.90092 | -81.26330 | 36896 ft | 467 kts | 10° |
| 2026-05-07 20:35 | 31.96222 | -81.24040 | 36903 ft | 457 kts | 1° |
| 2026-05-07 20:36 | 32.02429 | -81.23435 | 36908 ft | 445 kts | 352° |
| 2026-05-07 20:36 | 32.08619 | -81.23143 | 36955 ft | 445 kts | 352° |
| 2026-05-07 20:37 | 32.14825 | -81.22835 | 36939 ft | 446 kts | 352° |
| 2026-05-07 20:37 | 32.19975 | -81.22572 | 36930 ft | 446 kts | 352° |
| 2026-05-07 20:38 | 32.26197 | -81.22258 | 36925 ft | 446 kts | 352° |
| 2026-05-07 20:38 | 32.32408 | -81.21947 | 36945 ft | 447 kts | 351° |
| 2026-05-07 20:39 | 32.38600 | -81.21635 | 36930 ft | 447 kts | 351° |
| 2026-05-07 20:39 | 32.44840 | -81.21330 | 36924 ft | 448 kts | 351° |
| 2026-05-07 20:40 | 32.51071 | -81.20567 | 36925 ft | 460 kts | 0° |
| 2026-05-07 20:40 | 32.57390 | -81.19116 | 36918 ft | 461 kts | 0° |
| 2026-05-07 20:41 | 32.63708 | -81.17643 | 36918 ft | 461 kts | 359° |
| 2026-05-07 20:41 | 32.69969 | -81.16195 | 36905 ft | 461 kts | 359° |
| 2026-05-07 20:42 | 32.76290 | -81.14738 | 36903 ft | 462 kts | 359° |
| 2026-05-07 20:42 | 32.82606 | -81.13277 | 36901 ft | 462 kts | 359° |
| 2026-05-07 20:43 | 32.88925 | -81.11810 | 36911 ft | 464 kts | 359° |
| 2026-05-07 20:43 | 32.95275 | -81.10342 | 36894 ft | 464 kts | 359° |
| 2026-05-07 20:44 | 33.01580 | -81.08885 | 36892 ft | 465 kts | 359° |
| 2026-05-07 20:44 | 33.07964 | -81.07397 | 36882 ft | 466 kts | 359° |
| 2026-05-07 20:45 | 33.14334 | -81.05913 | 36886 ft | 467 kts | 359° |
| 2026-05-07 20:45 | 33.20686 | -81.04433 | 36891 ft | 467 kts | 359° |
| 2026-05-07 20:46 | 33.27083 | -81.02938 | 36888 ft | 468 kts | 359° |
| 2026-05-07 20:46 | 33.33476 | -81.01439 | 36892 ft | 468 kts | 359° |
| 2026-05-07 20:47 | 33.39857 | -80.99950 | 36915 ft | 468 kts | 359° |
| 2026-05-07 20:47 | 33.46262 | -80.98451 | 36898 ft | 469 kts | 359° |
| 2026-05-07 20:48 | 33.52661 | -80.96943 | 36883 ft | 470 kts | 359° |
| 2026-05-07 20:48 | 33.58996 | -80.95441 | 36878 ft | 470 kts | 359° |
| 2026-05-07 20:49 | 33.65418 | -80.93929 | 36925 ft | 470 kts | 357° |
| 2026-05-07 20:49 | 33.71847 | -80.92423 | 36908 ft | 470 kts | 357° |
| 2026-05-07 20:50 | 33.78278 | -80.90906 | 36868 ft | 470 kts | 358° |
| 2026-05-07 20:50 | 33.84702 | -80.89384 | 36862 ft | 470 kts | 358° |
| 2026-05-07 20:51 | 33.91072 | -80.88057 | 36888 ft | 464 kts | 354° |
| 2026-05-07 20:51 | 33.97450 | -80.86988 | 36875 ft | 462 kts | 353° |
| 2026-05-07 20:52 | 34.03824 | -80.85929 | 36871 ft | 462 kts | 354° |
| 2026-05-07 20:52 | 34.10210 | -80.84788 | 36895 ft | 463 kts | 354° |
| 2026-05-07 20:53 | 34.16543 | -80.83622 | 36901 ft | 463 kts | 354° |
| 2026-05-07 20:53 | 34.22903 | -80.82456 | 36883 ft | 462 kts | 354° |
| 2026-05-07 20:54 | 34.29266 | -80.81309 | 36870 ft | 462 kts | 354° |
| 2026-05-07 20:54 | 34.35646 | -80.80162 | 36870 ft | 462 kts | 354° |
| 2026-05-07 20:55 | 34.41985 | -80.79012 | 36896 ft | 463 kts | 353° |
| 2026-05-07 20:55 | 34.48381 | -80.77842 | 36881 ft | 463 kts | 353° |
| 2026-05-07 20:56 | 34.54754 | -80.76680 | 36877 ft | 464 kts | 353° |
| 2026-05-07 20:56 | 34.61116 | -80.75523 | 36871 ft | 464 kts | 353° |
| 2026-05-07 20:57 | 34.67548 | -80.74347 | 36869 ft | 462 kts | 353° |
| 2026-05-07 20:57 | 34.73886 | -80.73176 | 36847 ft | 460 kts | 352° |
| 2026-05-07 20:58 | 34.80172 | -80.72029 | 36857 ft | 461 kts | 352° |
| 2026-05-07 20:58 | 34.86516 | -80.70866 | 36858 ft | 461 kts | 352° |
| 2026-05-07 20:59 | 34.92874 | -80.69700 | 36899 ft | 461 kts | 352° |
| 2026-05-07 20:59 | 34.99235 | -80.68528 | 36897 ft | 461 kts | 352° |
| 2026-05-07 21:00 | 35.05593 | -80.67351 | 36893 ft | 461 kts | 352° |
| 2026-05-07 21:00 | 35.11898 | -80.66188 | 36894 ft | 461 kts | 352° |
| 2026-05-07 21:01 | 35.18267 | -80.65009 | 36888 ft | 461 kts | 352° |
| 2026-05-07 21:01 | 35.24610 | -80.63829 | 36877 ft | 460 kts | 352° |
| 2026-05-07 21:02 | 35.30925 | -80.62664 | 36856 ft | 461 kts | 352° |
| 2026-05-07 21:02 | 35.37271 | -80.61488 | 36880 ft | 461 kts | 352° |
| 2026-05-07 21:03 | 35.43621 | -80.60293 | 36900 ft | 460 kts | 352° |
| 2026-05-07 21:03 | 35.49918 | -80.59115 | 36897 ft | 460 kts | 352° |
| 2026-05-07 21:04 | 35.56259 | -80.57939 | 36894 ft | 460 kts | 351° |
| 2026-05-07 21:04 | 35.62586 | -80.56762 | 36897 ft | 460 kts | 352° |
| 2026-05-07 21:05 | 35.68903 | -80.55574 | 36896 ft | 460 kts | 352° |
| 2026-05-07 21:05 | 35.75217 | -80.54376 | 36897 ft | 460 kts | 352° |
| 2026-05-07 21:06 | 35.81549 | -80.53184 | 36894 ft | 460 kts | 351° |
| 2026-05-07 21:06 | 35.87886 | -80.51996 | 36912 ft | 460 kts | 351° |
| 2026-05-07 21:07 | 35.94207 | -80.50812 | 36896 ft | 460 kts | 351° |
| 2026-05-07 21:07 | 36.00542 | -80.49614 | 36883 ft | 460 kts | 351° |
| 2026-05-07 21:08 | 36.06841 | -80.48417 | 36877 ft | 460 kts | 351° |
| 2026-05-07 21:08 | 36.13156 | -80.47217 | 36939 ft | 460 kts | 351° |
| 2026-05-07 21:09 | 36.19439 | -80.46018 | 36862 ft | 456 kts | 351° |
| 2026-05-07 21:09 | 36.25724 | -80.44825 | 36862 ft | 457 kts | 351° |
| 2026-05-07 21:10 | 36.32026 | -80.43637 | 36896 ft | 458 kts | 351° |
| 2026-05-07 21:10 | 36.38294 | -80.42443 | 36965 ft | 458 kts | 351° |
| 2026-05-07 21:11 | 36.44591 | -80.41224 | 36954 ft | 459 kts | 351° |
| 2026-05-07 21:11 | 36.54048 | -80.39280 | 36937 ft | 459 kts | 352° |
| 2026-05-07 21:12 | 36.60359 | -80.37978 | 37016 ft | 459 kts | 352° |
| 2026-05-07 21:12 | 36.63499 | -80.37337 | 36914 ft | 457 kts | 351° |
| 2026-05-07 21:12 | 36.66630 | -80.36693 | 36917 ft | 455 kts | 351° |
| 2026-05-07 21:13 | 36.72884 | -80.35416 | 36909 ft | 455 kts | 351° |
| 2026-05-07 21:13 | 36.79089 | -80.34326 | 36916 ft | 449 kts | 348° |
| 2026-05-07 21:14 | 36.85286 | -80.33516 | 36998 ft | 447 kts | 347° |
| 2026-05-07 21:14 | 36.91458 | -80.32715 | 36936 ft | 445 kts | 348° |
| 2026-05-07 21:15 | 36.97624 | -80.31858 | 36940 ft | 446 kts | 348° |
| 2026-05-07 21:15 | 37.03787 | -80.30979 | 36943 ft | 446 kts | 348° |
| 2026-05-07 21:16 | 37.09914 | -80.30099 | 36984 ft | 446 kts | 348° |
| 2026-05-07 21:16 | 37.16059 | -80.29214 | 36956 ft | 444 kts | 348° |
| 2026-05-07 21:17 | 37.22203 | -80.28330 | 36953 ft | 444 kts | 348° |
| 2026-05-07 21:17 | 37.28362 | -80.27444 | 36923 ft | 444 kts | 348° |
| 2026-05-07 21:18 | 37.34502 | -80.26564 | 36963 ft | 445 kts | 348° |
| 2026-05-07 21:18 | 37.40671 | -80.25685 | 36933 ft | 445 kts | 348° |
| 2026-05-07 21:19 | 37.46788 | -80.24807 | 36924 ft | 446 kts | 348° |
| 2026-05-07 21:19 | 37.52969 | -80.23907 | 36922 ft | 446 kts | 348° |
| 2026-05-07 21:20 | 37.59140 | -80.23014 | 36950 ft | 447 kts | 350° |
| 2026-05-07 21:20 | 37.64296 | -80.22272 | 36935 ft | 448 kts | 350° |
| 2026-05-07 21:21 | 37.71516 | -80.21213 | 36932 ft | 449 kts | 350° |
| 2026-05-07 21:21 | 37.76726 | -80.20431 | 36930 ft | 450 kts | 350° |
| 2026-05-07 21:22 | 37.82950 | -80.19496 | 36957 ft | 450 kts | 352° |
| 2026-05-07 21:22 | 37.90198 | -80.18407 | 36943 ft | 451 kts | 352° |
| 2026-05-07 21:23 | 37.96423 | -80.17474 | 36923 ft | 451 kts | 352° |
| 2026-05-07 21:23 | 38.02663 | -80.16540 | 36922 ft | 451 kts | 351° |
| 2026-05-07 21:24 | 38.07849 | -80.15753 | 36935 ft | 451 kts | 351° |
| 2026-05-07 21:24 | 38.14104 | -80.14800 | 36934 ft | 451 kts | 351° |
| 2026-05-07 21:25 | 38.20291 | -80.13877 | 36928 ft | 450 kts | 351° |
| 2026-05-07 21:25 | 38.26531 | -80.12941 | 36965 ft | 450 kts | 352° |
| 2026-05-07 21:26 | 38.32761 | -80.11997 | 36952 ft | 451 kts | 352° |
| 2026-05-07 21:26 | 38.38985 | -80.11149 | 36948 ft | 446 kts | 349° |
| 2026-05-07 21:27 | 38.45146 | -80.10783 | 36949 ft | 440 kts | 347° |
| 2026-05-07 21:27 | 38.51208 | -80.10597 | 36957 ft | 439 kts | 347° |
| 2026-05-07 21:28 | 38.57331 | -80.10334 | 36954 ft | 440 kts | 348° |
| 2026-05-07 21:28 | 38.63478 | -80.09986 | 36955 ft | 441 kts | 348° |
| 2026-05-07 21:29 | 38.69625 | -80.09621 | 36943 ft | 441 kts | 348° |
| 2026-05-07 21:29 | 38.75727 | -80.09271 | 36970 ft | 441 kts | 348° |
| 2026-05-07 21:30 | 38.81848 | -80.08939 | 36955 ft | 441 kts | 348° |
| 2026-05-07 21:30 | 38.87983 | -80.08606 | 36951 ft | 441 kts | 348° |
| 2026-05-07 21:31 | 38.94157 | -80.07959 | 36997 ft | 455 kts | 355° |
| 2026-05-07 21:31 | 39.00374 | -80.06624 | 36928 ft | 453 kts | 355° |
| 2026-05-07 21:32 | 39.06608 | -80.05265 | 36930 ft | 454 kts | 355° |
| 2026-05-07 21:32 | 39.12808 | -80.03919 | 36924 ft | 454 kts | 355° |
| 2026-05-07 21:33 | 39.19049 | -80.02575 | 36954 ft | 455 kts | 355° |
| 2026-05-07 21:33 | 39.25261 | -80.01237 | 36942 ft | 455 kts | 355° |
| 2026-05-07 21:34 | 39.31514 | -79.99881 | 36937 ft | 455 kts | 355° |
| 2026-05-07 21:34 | 39.37787 | -79.98517 | 37013 ft | 455 kts | 355° |
| 2026-05-07 21:35 | 39.44015 | -79.97158 | 36936 ft | 454 kts | 355° |
| 2026-05-07 21:35 | 39.50248 | -79.95808 | 36923 ft | 454 kts | 355° |
| 2026-05-07 21:36 | 39.56478 | -79.94450 | 36920 ft | 455 kts | 355° |
| 2026-05-07 21:36 | 39.62686 | -79.93080 | 36956 ft | 455 kts | 356° |
| 2026-05-07 21:37 | 39.68922 | -79.91711 | 36948 ft | 455 kts | 355° |
| 2026-05-07 21:37 | 39.75175 | -79.90344 | 36944 ft | 455 kts | 355° |
| 2026-05-07 21:38 | 39.81416 | -79.88976 | 37009 ft | 455 kts | 355° |
| 2026-05-07 21:38 | 39.87656 | -79.87594 | 36932 ft | 454 kts | 355° |
| 2026-05-07 21:39 | 39.93265 | -79.86352 | 36924 ft | 454 kts | 355° |